createdAt,value
2023-02-01T00:01:36.319Z,101305.53
2023-02-01T00:05:37.654Z,101299.41
2023-02-01T00:09:39.017Z,101298.69
2023-02-01T00:13:42.584Z,101308.25
2023-02-01T00:17:43.851Z,101315.53
2023-02-01T00:21:46.469Z,101317.84
2023-02-01T00:25:47.910Z,101320.97
2023-02-01T00:29:49.281Z,101318.28
2023-02-01T00:33:51.013Z,101303.16
2023-02-01T00:37:52.327Z,101310.41
2023-02-01T00:41:53.788Z,101299.13
2023-02-01T00:45:55.093Z,101300.84
2023-02-01T00:49:56.459Z,101302.50
2023-02-01T00:53:58.232Z,101299.47
2023-02-01T00:57:59.598Z,101306.34
2023-02-01T01:02:03.684Z,101292.31
2023-02-01T01:06:08.891Z,101278.16
2023-02-01T01:10:10.907Z,101269.13
2023-02-01T01:14:12.273Z,101255.06
2023-02-01T01:18:13.671Z,101263.56
2023-02-01T01:22:15.020Z,101281.47
2023-02-01T01:26:19.123Z,101282.91
2023-02-01T01:30:21.124Z,101289.28
2023-02-01T01:34:22.609Z,101300.13
2023-02-01T01:38:24.083Z,101299.00
2023-02-01T01:42:25.482Z,101307.25
2023-02-01T01:46:32.964Z,101309.72
2023-02-01T01:50:43.504Z,101296.47
2023-02-01T01:54:49.858Z,101294.63
2023-02-01T01:58:51.268Z,101279.47
2023-02-01T02:03:04.338Z,101282.97
2023-02-01T02:07:12.557Z,101282.09
2023-02-01T02:11:17.099Z,101273.44
2023-02-01T02:15:18.683Z,101273.47
2023-02-01T02:19:38.741Z,101258.94
2023-02-01T02:23:58.418Z,101262.00
2023-02-01T02:28:21.618Z,101254.16
2023-02-01T02:32:53.573Z,101257.66
2023-02-01T02:37:16.620Z,101256.03
2023-02-01T02:41:48.085Z,101253.88
2023-02-01T02:46:36.700Z,101249.09
2023-02-01T02:51:15.737Z,101261.22
2023-02-01T02:55:17.727Z,101252.94
2023-02-01T02:59:41.282Z,101234.03
2023-02-01T03:04:09.438Z,101226.94
2023-02-01T03:08:17.273Z,101230.25
2023-02-01T03:12:37.899Z,101227.16
2023-02-01T03:16:52.821Z,101229.75
2023-02-01T03:20:56.348Z,101226.28
2023-02-01T03:25:06.114Z,101227.09
2023-02-01T03:29:14.918Z,101218.56
2023-02-01T03:33:22.871Z,101234.38
2023-02-01T03:37:28.632Z,101227.41
2023-02-01T03:41:41.546Z,101232.22
2023-02-01T03:45:46.813Z,101231.44
2023-02-01T03:49:55.070Z,101221.28
2023-02-01T03:53:58.298Z,101205.25
2023-02-01T03:58:12.040Z,101212.88
2023-02-01T04:02:13.473Z,101208.69
2023-02-01T04:06:14.828Z,101201.13
2023-02-01T04:10:19.533Z,101206.97
2023-02-01T04:14:21.104Z,101221.34
2023-02-01T04:18:22.439Z,101221.31
2023-02-01T04:22:24.006Z,101221.41
2023-02-01T04:26:25.475Z,101211.78
2023-02-01T04:30:27.011Z,101206.44
2023-02-01T04:34:28.332Z,101196.44
2023-02-01T04:38:30.355Z,101200.44
2023-02-01T04:42:31.661Z,101201.50
2023-02-01T04:46:33.059Z,101205.38
2023-02-01T04:50:34.400Z,101194.50
2023-02-01T04:54:35.753Z,101171.84
2023-02-01T04:58:37.465Z,101169.88
2023-02-01T05:02:38.867Z,101165.16
2023-02-01T05:06:40.309Z,101167.50
2023-02-01T05:10:41.666Z,101178.94
2023-02-01T05:14:43.090Z,101184.75
2023-02-01T05:18:44.651Z,101181.44
2023-02-01T05:22:45.953Z,101205.16
2023-02-01T05:26:49.031Z,101207.16
2023-02-01T05:30:50.404Z,101193.19
2023-02-01T05:34:51.798Z,101188.63
2023-02-01T05:38:53.317Z,101193.53
2023-02-01T05:42:54.670Z,101198.25
2023-02-01T05:46:56.019Z,101206.09
2023-02-01T05:50:57.558Z,101199.69
2023-02-01T05:54:59.117Z,101182.59
2023-02-01T06:03:02.566Z,101198.94
2023-02-01T06:07:04.048Z,101202.88
2023-02-01T06:11:06.074Z,101203.97
2023-02-01T06:15:07.982Z,101190.59
2023-02-01T06:19:09.762Z,101200.69
2023-02-01T06:23:11.129Z,101197.69
2023-02-01T06:27:12.781Z,101211.16
2023-02-01T06:31:14.323Z,101220.72
2023-02-01T06:35:17.095Z,101223.22
2023-02-01T06:39:18.734Z,101225.19
2023-02-01T06:43:20.199Z,101227.75
2023-02-01T06:47:21.571Z,101229.56
2023-02-01T06:51:25.864Z,101232.19
2023-02-01T06:55:27.221Z,101229.97
2023-02-01T06:59:28.555Z,101237.44
2023-02-01T07:03:29.856Z,101234.06
2023-02-01T07:07:31.193Z,101233.09
2023-02-01T07:11:32.925Z,101235.25
2023-02-01T07:15:34.312Z,101244.50
2023-02-01T07:19:35.675Z,101258.88
2023-02-01T07:23:37.515Z,101251.47
2023-02-01T07:27:38.850Z,101257.38
2023-02-01T07:31:40.597Z,101265.56
2023-02-01T07:35:41.967Z,101259.84
2023-02-01T07:39:43.375Z,101266.50
2023-02-01T07:43:44.958Z,101274.19
2023-02-01T07:47:46.280Z,101262.09
2023-02-01T07:51:47.598Z,101257.00
2023-02-01T07:55:49.038Z,101263.84
2023-02-01T08:00:08.783Z,101265.56
2023-02-01T08:04:13.528Z,101272.84
2023-02-01T08:08:14.864Z,101279.25
2023-02-01T08:12:16.176Z,101274.72
2023-02-01T08:16:19.080Z,101281.78
2023-02-01T08:20:23.015Z,101279.44
2023-02-01T08:24:24.572Z,101262.94
2023-02-01T08:28:26.004Z,101275.69
2023-02-01T08:32:28.365Z,101273.94
2023-02-01T08:36:31.615Z,101273.59
2023-02-01T08:40:34.140Z,101286.09
2023-02-01T08:44:35.540Z,101284.00
2023-02-01T08:48:37.421Z,101304.66
2023-02-01T08:52:38.848Z,101304.38
2023-02-01T08:56:40.245Z,101302.81
2023-02-01T09:00:41.814Z,101303.56
2023-02-01T09:04:43.571Z,101307.69
2023-02-01T09:08:45.267Z,101299.66
2023-02-01T09:12:46.647Z,101299.72
2023-02-01T09:16:47.946Z,101285.88
2023-02-01T09:20:49.300Z,101293.88
2023-02-01T09:24:50.745Z,101292.94
2023-02-01T09:28:52.349Z,101277.16
2023-02-01T09:32:53.648Z,101282.81
2023-02-01T09:36:55.327Z,101275.75
2023-02-01T09:40:57.108Z,101282.09
2023-02-01T09:45:24.506Z,101290.25
2023-02-01T09:49:32.958Z,101280.53
2023-02-01T09:53:38.897Z,101270.53
2023-02-01T09:57:58.219Z,101283.06
2023-02-01T10:02:00.672Z,101286.19
2023-02-01T10:06:21.672Z,101278.03
2023-02-01T10:10:42.042Z,101282.50
2023-02-01T10:14:46.406Z,101280.06
2023-02-01T10:19:06.297Z,101262.25
2023-02-01T10:23:41.907Z,101261.81
2023-02-01T10:27:43.434Z,101254.88
2023-02-01T10:31:45.743Z,101263.22
2023-02-01T10:35:51.459Z,101252.31
2023-02-01T10:39:55.972Z,101247.25
2023-02-01T10:43:59.516Z,101252.47
2023-02-01T10:48:03.370Z,101248.56
2023-02-01T10:52:21.019Z,101237.47
2023-02-01T10:56:25.231Z,101237.47
2023-02-01T11:00:27.476Z,101240.50
2023-02-01T11:04:34.724Z,101239.66
2023-02-01T11:08:44.982Z,101237.19
2023-02-01T11:12:54.851Z,101226.53
2023-02-01T11:17:01.162Z,101236.19
2023-02-01T11:21:03.627Z,101231.13
2023-02-01T11:25:14.992Z,101224.47
2023-02-01T11:29:22.957Z,101228.72
2023-02-01T11:33:35.980Z,101211.47
2023-02-01T11:37:41.959Z,101226.69
2023-02-01T11:41:44.368Z,101234.03
2023-02-01T11:46:00.768Z,101220.47
2023-02-01T11:50:06.686Z,101216.00
2023-02-01T11:54:32.449Z,101209.25
2023-02-01T11:58:55.461Z,101202.09
2023-02-01T12:03:24.732Z,101203.66
2023-02-01T12:07:44.169Z,101180.88
2023-02-01T12:11:45.446Z,101176.16
2023-02-01T12:16:18.367Z,101176.06
2023-02-01T12:20:39.115Z,101176.84
2023-02-01T12:24:56.345Z,101176.75
2023-02-01T12:29:06.876Z,101184.00
2023-02-01T12:33:34.174Z,101190.13
2023-02-01T12:38:04.956Z,101184.56
2023-02-01T12:42:19.150Z,101172.94
2023-02-01T12:46:54.586Z,101171.19
2023-02-01T12:51:05.523Z,101170.19
2023-02-01T12:55:07.146Z,101157.34
2023-02-01T12:59:28.447Z,101146.22
2023-02-01T13:03:35.601Z,101150.22
2023-02-01T13:07:59.576Z,101139.75
2023-02-01T13:12:13.518Z,101129.44
2023-02-01T13:16:29.851Z,101132.41
2023-02-01T13:20:48.081Z,101128.63
2023-02-01T13:24:55.369Z,101115.59
2023-02-01T13:29:09.765Z,101110.19
2023-02-01T13:33:52.495Z,101115.28
2023-02-01T13:38:06.384Z,101104.97
2023-02-01T13:42:24.913Z,101092.66
2023-02-01T13:46:27.276Z,101109.28
2023-02-01T13:50:34.955Z,101122.28
2023-02-01T13:54:40.893Z,101096.72
2023-02-01T13:58:44.900Z,101102.53
2023-02-01T14:03:01.811Z,101097.94
2023-02-01T14:07:03.214Z,101105.34
2023-02-01T14:11:06.231Z,101116.56
2023-02-01T14:15:28.511Z,101090.72
2023-02-01T14:19:32.615Z,101096.19
2023-02-01T14:23:40.852Z,101106.47
2023-02-01T14:27:42.372Z,101114.03
2023-02-01T14:31:55.695Z,101107.16
2023-02-01T14:36:08.065Z,101112.19
2023-02-01T14:40:15.254Z,101118.25
2023-02-01T14:44:25.623Z,101117.53
2023-02-01T14:48:45.070Z,101128.13
2023-02-01T14:53:17.887Z,101132.47
2023-02-01T14:57:21.898Z,101128.44
2023-02-01T15:01:31.391Z,101119.78
2023-02-01T15:05:34.967Z,101122.50
2023-02-01T15:10:01.301Z,101132.28
2023-02-01T15:14:02.989Z,101121.25
2023-02-01T15:18:04.577Z,101142.53
2023-02-01T15:22:06.027Z,101134.13
2023-02-01T15:26:07.451Z,101138.66
2023-02-01T15:30:17.881Z,101145.50
2023-02-01T15:34:20.426Z,101151.69
2023-02-01T15:38:24.983Z,101153.84
2023-02-01T15:42:26.451Z,101154.84
2023-02-01T15:46:40.867Z,101160.19
2023-02-01T15:50:42.392Z,101155.47
2023-02-01T15:54:50.642Z,101158.53
2023-02-01T15:58:56.031Z,101155.41
2023-02-01T16:03:01.824Z,101139.25
2023-02-01T16:07:05.626Z,101155.41
2023-02-01T16:11:10.102Z,101145.31
2023-02-01T16:15:11.464Z,101166.69
2023-02-01T16:19:15.904Z,101180.47
2023-02-01T16:23:17.443Z,101182.06
2023-02-01T16:27:19.074Z,101189.66
2023-02-01T16:31:29.386Z,101201.06
2023-02-01T16:35:36.870Z,101190.22
2023-02-01T16:39:38.220Z,101195.53
2023-02-01T16:43:39.679Z,101193.25
2023-02-01T16:47:52.193Z,101196.38
2023-02-01T16:51:58.529Z,101193.97
2023-02-01T16:56:00.320Z,101194.81
2023-02-01T17:00:18.009Z,101204.16
2023-02-01T17:04:24.810Z,101207.91
2023-02-01T17:08:34.807Z,101215.94
2023-02-01T17:12:37.159Z,101225.19
2023-02-01T17:16:38.560Z,101223.28
2023-02-01T17:20:39.910Z,101221.81
2023-02-01T17:24:48.591Z,101223.47
2023-02-01T17:28:50.519Z,101223.06
2023-02-01T17:32:51.911Z,101233.88
2023-02-01T17:36:53.400Z,101240.81
2023-02-01T17:40:54.829Z,101245.44
2023-02-01T17:44:59.883Z,101240.84
2023-02-01T17:49:03.610Z,101241.00
2023-02-01T17:53:09.532Z,101251.31
2023-02-01T17:57:14.319Z,101244.81
2023-02-01T18:01:19.071Z,101241.16
2023-02-01T18:05:26.646Z,101244.94
2023-02-01T18:09:28.041Z,101248.97
2023-02-01T18:13:31.341Z,101258.56
2023-02-01T18:17:32.683Z,101260.34
2023-02-01T18:21:37.772Z,101252.13
2023-02-01T18:25:39.269Z,101247.03
2023-02-01T18:29:40.604Z,101250.00
2023-02-01T18:33:41.965Z,101242.97
2023-02-01T18:37:43.771Z,101239.69
2023-02-01T18:41:47.936Z,101244.75
2023-02-01T18:45:49.497Z,101233.72
2023-02-01T18:49:50.888Z,101241.22
2023-02-01T18:53:52.249Z,101233.16
2023-02-01T18:57:54.093Z,101227.81
2023-02-01T19:01:55.466Z,101229.50
2023-02-01T19:05:58.051Z,101237.22
2023-02-01T19:09:59.971Z,101248.41
2023-02-01T19:14:01.304Z,101237.94
2023-02-01T19:18:02.674Z,101234.88
2023-02-01T19:22:04.195Z,101238.28
2023-02-01T19:26:11.195Z,101230.47
2023-02-01T19:30:14.074Z,101234.31
2023-02-01T19:34:15.857Z,101233.25
2023-02-01T19:38:17.215Z,101236.97
2023-02-01T19:42:18.952Z,101230.97
2023-02-01T19:46:20.352Z,101227.94
2023-02-01T19:50:22.111Z,101225.81
2023-02-01T19:54:23.515Z,101239.84
2023-02-01T19:58:25.662Z,101234.06
2023-02-01T20:02:28.517Z,101238.53
2023-02-01T20:06:31.418Z,101225.69
2023-02-01T20:10:32.752Z,101241.75
2023-02-01T20:14:34.194Z,101216.88
2023-02-01T20:18:36.310Z,101234.97
2023-02-01T20:22:37.685Z,101232.16
2023-02-01T20:26:40.194Z,101224.47
2023-02-01T20:30:44.677Z,101229.75
2023-02-01T20:34:46.052Z,101217.41
2023-02-01T20:38:47.503Z,101220.63
2023-02-01T20:42:48.840Z,101216.75
2023-02-01T20:46:50.222Z,101221.59
2023-02-01T20:50:56.070Z,101222.31
2023-02-01T20:54:57.475Z,101221.72
2023-02-01T20:59:03.146Z,101229.63
2023-02-01T21:03:04.507Z,101231.69
2023-02-01T21:07:05.804Z,101236.00
2023-02-01T21:11:09.876Z,101238.53
2023-02-01T21:15:11.539Z,101241.75
2023-02-01T21:19:13.100Z,101243.22
2023-02-01T21:23:15.664Z,101244.41
2023-02-01T21:27:17.191Z,101246.09
2023-02-01T21:31:20.998Z,101246.09
2023-02-01T21:35:22.697Z,101252.00
2023-02-01T21:39:27.411Z,101265.28
2023-02-01T21:43:28.741Z,101258.81
2023-02-01T21:47:30.410Z,101263.84
2023-02-01T21:51:32.153Z,101271.13
2023-02-01T21:55:33.526Z,101260.28
2023-02-01T21:59:36.053Z,101272.22
2023-02-01T22:03:37.382Z,101276.75
2023-02-01T22:07:38.673Z,101274.81
2023-02-01T22:11:40.061Z,101273.97
2023-02-01T22:15:41.443Z,101277.94
2023-02-01T22:19:42.752Z,101282.19
2023-02-01T22:23:47.613Z,101282.47
2023-02-01T22:28:32.978Z,101284.41
2023-02-01T22:32:13.123Z,101290.38
2023-02-01T22:36:17.946Z,101290.88
2023-02-01T22:40:19.356Z,101291.72
2023-02-01T22:44:20.758Z,101300.47
2023-02-01T22:48:22.087Z,101311.19
2023-02-01T22:52:23.545Z,101291.84
2023-02-01T22:56:26.868Z,101304.69
2023-02-01T23:00:29.371Z,101298.59
2023-02-01T23:04:30.809Z,101320.66
2023-02-01T23:08:35.255Z,101317.81
2023-02-01T23:12:36.624Z,101302.22
2023-02-01T23:16:53.440Z,101316.72
2023-02-01T23:20:54.875Z,101323.94
2023-02-01T23:24:56.409Z,101318.66
2023-02-01T23:28:59.014Z,101322.69
2023-02-01T23:33:00.338Z,101326.44
2023-02-01T23:37:01.950Z,101317.66
2023-02-01T23:41:05.910Z,101326.13
2023-02-01T23:45:07.566Z,101335.19
2023-02-01T23:49:10.167Z,101328.34
2023-02-01T23:53:11.472Z,101329.63
2023-02-01T23:57:15.877Z,101343.00
